createdAt,value
2022-11-29T00:01:40.895Z,11.77
2022-11-29T00:04:13.565Z,10.48
2022-11-29T00:06:46.239Z,8.13
2022-11-29T00:09:19.126Z,8.48
2022-11-29T00:12:10.534Z,7.72
2022-11-29T00:14:43.320Z,7.82
2022-11-29T00:17:16.186Z,9.77
2022-11-29T00:19:48.810Z,9.20
2022-11-29T00:22:23.597Z,9.20
2022-11-29T00:24:56.299Z,8.38
2022-11-29T00:27:29.100Z,8.52
2022-11-29T00:30:02.011Z,7.57
2022-11-29T00:32:35.714Z,7.90
2022-11-29T00:35:09.953Z,8.40
2022-11-29T00:37:42.745Z,8.77
2022-11-29T00:40:15.423Z,8.05
2022-11-29T00:42:48.208Z,8.57
2022-11-29T00:45:20.915Z,8.90
2022-11-29T00:47:53.528Z,7.18
2022-11-29T00:50:26.288Z,7.63
2022-11-29T00:52:58.911Z,7.25
2022-11-29T00:55:31.547Z,8.20
2022-11-29T00:58:04.382Z,7.28
2022-11-29T01:00:37.227Z,7.60
2022-11-29T01:03:10.192Z,7.65
2022-11-29T01:05:43.554Z,7.15
2022-11-29T01:08:17.388Z,7.82
2022-11-29T01:10:49.992Z,7.95
2022-11-29T01:13:22.648Z,7.45
2022-11-29T01:15:57.514Z,7.45
2022-11-29T01:18:30.942Z,8.77
2022-11-29T01:21:09.518Z,6.85
2022-11-29T01:23:44.589Z,7.75
2022-11-29T01:26:24.752Z,7.72
2022-11-29T01:28:59.399Z,8.50
2022-11-29T01:31:37.921Z,7.95
2022-11-29T01:34:11.232Z,7.63
2022-11-29T01:36:43.966Z,7.22
2022-11-29T01:39:16.620Z,8.80
2022-11-29T01:41:49.356Z,7.65
2022-11-29T01:44:21.943Z,7.68
2022-11-29T01:46:56.143Z,8.25
2022-11-29T01:49:37.978Z,7.20
2022-11-29T01:52:23.540Z,7.53
2022-11-29T01:55:01.782Z,7.70
2022-11-29T01:57:39.230Z,8.38
2022-11-29T02:00:17.373Z,8.30
2022-11-29T02:03:00.306Z,7.60
2022-11-29T02:05:33.708Z,9.07
2022-11-29T02:08:09.803Z,9.07
2022-11-29T02:11:15.472Z,8.90
2022-11-29T02:14:11.794Z,8.52
2022-11-29T02:17:01.706Z,8.70
2022-11-29T02:20:24.847Z,8.15
2022-11-29T02:23:26.359Z,8.32
2022-11-29T02:26:50.759Z,9.38
2022-11-29T02:30:08.760Z,7.85
2022-11-29T02:32:41.184Z,7.78
2022-11-29T02:35:52.626Z,8.23
2022-11-29T02:38:54.012Z,8.02
2022-11-29T02:41:40.651Z,7.07
2022-11-29T02:44:27.810Z,8.75
2022-11-29T02:47:13.753Z,7.38
2022-11-29T02:50:19.864Z,7.72
2022-11-29T02:53:17.472Z,8.07
2022-11-29T02:56:14.259Z,7.75
2022-11-29T02:59:23.784Z,7.32
2022-11-29T03:02:37.897Z,6.95
2022-11-29T03:05:25.227Z,8.00
2022-11-29T03:08:25.233Z,7.85
2022-11-29T03:11:39.828Z,7.43
2022-11-29T03:14:26.927Z,7.82
2022-11-29T03:17:51.481Z,8.60
2022-11-29T03:20:38.436Z,7.35
2022-11-29T03:23:33.785Z,7.25
2022-11-29T03:26:14.590Z,8.57
2022-11-29T03:29:27.064Z,7.72
2022-11-29T03:32:13.767Z,7.32
2022-11-29T03:35:18.362Z,6.82
2022-11-29T03:38:36.251Z,7.07
2022-11-29T03:41:43.268Z,6.80
2022-11-29T03:44:30.148Z,7.75
2022-11-29T03:47:16.319Z,7.32
2022-11-29T03:50:02.547Z,6.32
2022-11-29T03:52:49.928Z,6.60
2022-11-29T03:55:41.097Z,7.25
2022-11-29T03:58:28.977Z,6.72
2022-11-29T04:01:22.480Z,6.63
2022-11-29T04:04:48.153Z,6.22
2022-11-29T04:07:33.583Z,7.65
2022-11-29T04:10:34.797Z,6.85
2022-11-29T04:13:54.272Z,6.72
2022-11-29T04:17:14.770Z,5.82
2022-11-29T04:20:39.145Z,6.07
2022-11-29T04:23:46.765Z,6.82
2022-11-29T04:26:38.470Z,6.15
2022-11-29T04:29:23.914Z,6.32
2022-11-29T04:32:19.117Z,7.30
2022-11-29T04:35:33.794Z,6.45
2022-11-29T04:38:15.441Z,6.22
2022-11-29T04:41:15.925Z,7.00
2022-11-29T04:43:57.520Z,6.32
2022-11-29T04:46:39.905Z,5.60
2022-11-29T04:49:50.636Z,6.13
2022-11-29T04:52:30.813Z,6.60
2022-11-29T04:55:43.056Z,7.07
2022-11-29T04:58:44.200Z,6.00
2022-11-29T05:01:38.911Z,6.28
2022-11-29T05:04:21.486Z,5.15
2022-11-29T05:07:19.294Z,6.53
2022-11-29T05:10:29.111Z,5.68
2022-11-29T05:13:40.912Z,6.55
2022-11-29T05:16:45.760Z,6.05
2022-11-29T05:19:36.108Z,6.10
2022-11-29T05:22:55.991Z,6.20
2022-11-29T05:25:42.122Z,6.15
2022-11-29T05:28:31.696Z,6.20
2022-11-29T05:31:35.059Z,6.10
2022-11-29T05:34:30.306Z,6.15
2022-11-29T05:37:15.017Z,6.05
2022-11-29T05:40:34.710Z,6.32
2022-11-29T05:43:37.028Z,6.65
2022-11-29T05:46:28.538Z,5.68
2022-11-29T05:49:22.341Z,6.07
2022-11-29T05:52:29.742Z,6.25
2022-11-29T05:55:44.344Z,6.35
2022-11-29T05:58:35.469Z,5.75
2022-11-29T06:01:29.380Z,6.65
2022-11-29T06:04:17.828Z,6.40
2022-11-29T06:07:02.708Z,6.55
2022-11-29T06:09:48.797Z,6.38
2022-11-29T06:12:24.696Z,7.25
2022-11-29T06:15:48.504Z,7.10
2022-11-29T06:19:08.841Z,6.82
2022-11-29T06:22:09.752Z,6.70
2022-11-29T06:25:42.707Z,5.63
2022-11-29T06:28:44.461Z,6.15
2022-11-29T06:31:39.741Z,6.00
2022-11-29T06:34:36.827Z,6.43
2022-11-29T06:37:28.894Z,6.22
2022-11-29T06:40:02.198Z,6.40
2022-11-29T06:42:34.825Z,6.70
2022-11-29T06:45:10.653Z,5.78
2022-11-29T06:47:53.022Z,7.93
2022-11-29T06:50:49.913Z,7.47
2022-11-29T06:53:51.777Z,7.47
2022-11-29T06:56:49.456Z,6.90
2022-11-29T06:59:52.732Z,7.22
2022-11-29T07:02:55.904Z,6.93
2022-11-29T07:05:31.685Z,6.80
2022-11-29T07:08:12.748Z,8.00
2022-11-29T07:10:50.105Z,7.25
2022-11-29T07:13:23.841Z,7.40
2022-11-29T07:16:28.484Z,7.75
2022-11-29T07:19:31.761Z,8.82
2022-11-29T07:22:37.782Z,9.00
2022-11-29T07:25:53.110Z,9.38
2022-11-29T07:29:13.569Z,7.43
2022-11-29T07:32:17.110Z,7.45
2022-11-29T07:35:04.285Z,6.65
2022-11-29T07:38:06.449Z,6.55
2022-11-29T07:41:40.717Z,6.95
2022-11-29T07:44:30.710Z,6.43
2022-11-29T07:47:03.341Z,7.22
2022-11-29T07:49:36.105Z,7.45
2022-11-29T07:52:14.738Z,7.82
2022-11-29T07:54:47.845Z,6.57
2022-11-29T07:57:20.783Z,7.22
2022-11-29T07:59:53.440Z,7.63
2022-11-29T08:02:31.333Z,7.35
2022-11-29T08:05:04.590Z,6.85
2022-11-29T08:07:39.765Z,7.70
2022-11-29T08:10:16.883Z,7.03
2022-11-29T08:12:51.766Z,7.10
2022-11-29T08:15:25.950Z,7.60
2022-11-29T08:17:58.657Z,7.65
2022-11-29T08:20:31.382Z,7.47
2022-11-29T08:23:04.098Z,7.10
2022-11-29T08:25:37.002Z,6.60
2022-11-29T08:28:10.178Z,7.68
2022-11-29T08:30:42.870Z,7.72
2022-11-29T08:33:15.484Z,8.38
2022-11-29T08:35:48.198Z,7.70
2022-11-29T08:38:20.785Z,8.38
2022-11-29T08:40:53.557Z,7.85
2022-11-29T08:43:26.202Z,7.75
2022-11-29T08:45:59.347Z,7.97
2022-11-29T08:48:32.169Z,7.80
2022-11-29T08:51:06.480Z,7.38
2022-11-29T08:53:42.052Z,7.78
2022-11-29T08:59:13.616Z,7.53
2022-11-29T09:01:46.340Z,7.97
2022-11-29T09:04:19.032Z,7.80
2022-11-29T09:06:51.862Z,8.38
2022-11-29T09:09:24.614Z,7.40
2022-11-29T09:11:57.306Z,7.95
2022-11-29T09:14:30.919Z,8.85
2022-11-29T09:17:03.708Z,8.25
2022-11-29T09:19:36.547Z,7.72
2022-11-29T09:22:09.500Z,8.70
2022-11-29T09:24:45.422Z,7.78
2022-11-29T09:29:51.151Z,7.95
2022-11-29T09:32:24.002Z,8.75
2022-11-29T09:34:56.663Z,7.40
2022-11-29T09:37:29.459Z,7.63
2022-11-29T09:40:02.232Z,8.20
2022-11-29T09:43:04.785Z,6.95
2022-11-29T09:45:45.422Z,7.95
2022-11-29T09:49:03.166Z,8.25
2022-11-29T09:51:55.339Z,7.65
2022-11-29T09:55:10.143Z,7.38
2022-11-29T09:57:50.547Z,7.55
2022-11-29T10:00:23.429Z,8.35
2022-11-29T10:03:16.987Z,7.47
2022-11-29T10:05:57.692Z,5.97
2022-11-29T10:08:43.198Z,7.15
2022-11-29T10:11:56.508Z,6.93
2022-11-29T10:14:56.231Z,6.97
2022-11-29T10:17:44.448Z,6.57
2022-11-29T10:20:25.567Z,6.75
2022-11-29T10:23:16.089Z,7.78
2022-11-29T10:25:52.916Z,6.47
2022-11-29T10:28:32.027Z,6.88
2022-11-29T10:31:33.239Z,6.22
2022-11-29T10:34:30.953Z,5.28
2022-11-29T10:37:04.407Z,6.40
2022-11-29T10:39:47.834Z,7.22
2022-11-29T10:42:43.410Z,7.32
2022-11-29T10:47:56.625Z,6.72
2022-11-29T10:50:34.406Z,7.40
2022-11-29T10:53:13.645Z,7.05
2022-11-29T10:55:55.270Z,8.13
2022-11-29T10:58:30.817Z,7.22
2022-11-29T11:01:08.815Z,7.93
2022-11-29T11:03:54.079Z,7.82
2022-11-29T11:06:42.146Z,6.57
2022-11-29T11:10:04.214Z,9.07
2022-11-29T11:12:46.586Z,8.23
2022-11-29T11:15:32.050Z,7.80
2022-11-29T11:18:18.864Z,7.05
2022-11-29T11:20:57.161Z,8.25
2022-11-29T11:23:42.372Z,6.90
2022-11-29T11:26:15.464Z,7.88
2022-11-29T11:28:59.491Z,7.18
2022-11-29T11:31:37.909Z,6.43
2022-11-29T11:34:26.205Z,8.27
2022-11-29T11:37:29.290Z,7.35
2022-11-29T11:40:29.226Z,7.85
2022-11-29T11:43:03.225Z,7.88
2022-11-29T11:45:38.653Z,9.10
2022-11-29T11:48:16.540Z,6.80
2022-11-29T11:50:58.238Z,6.55
2022-11-29T11:53:37.629Z,7.47
2022-11-29T11:56:14.435Z,8.00
2022-11-29T11:58:57.136Z,9.70
2022-11-29T12:04:35.565Z,7.57
2022-11-29T12:07:59.740Z,6.88
2022-11-29T12:10:30.373Z,7.03
2022-11-29T12:13:04.606Z,7.88
2022-11-29T12:15:44.129Z,9.30
2022-11-29T12:18:50.095Z,9.25
2022-11-29T12:21:31.876Z,7.93
2022-11-29T12:24:27.555Z,8.10
2022-11-29T12:27:05.413Z,8.13
2022-11-29T12:29:38.334Z,9.07
2022-11-29T12:32:17.051Z,10.52
2022-11-29T12:34:58.629Z,10.82
2022-11-29T12:37:56.261Z,9.18
2022-11-29T12:41:18.350Z,9.40
2022-11-29T12:44:12.845Z,9.07
2022-11-29T12:50:18.459Z,8.43
2022-11-29T12:53:16.280Z,9.55
2022-11-29T12:56:16.258Z,9.20
2022-11-29T12:59:29.354Z,9.15
2022-11-29T13:02:34.370Z,9.35
2022-11-29T13:05:27.919Z,9.55
2022-11-29T13:08:38.130Z,9.82
2022-11-29T13:11:34.436Z,9.00
2022-11-29T13:14:44.025Z,10.32
2022-11-29T13:17:48.291Z,10.43
2022-11-29T13:20:42.749Z,10.45
2022-11-29T13:24:07.974Z,9.65
2022-11-29T13:26:41.939Z,10.75
2022-11-29T13:29:18.282Z,11.10
2022-11-29T13:31:52.058Z,10.95
2022-11-29T13:34:39.428Z,12.20
2022-11-29T13:38:16.463Z,11.60
2022-11-29T13:41:03.651Z,11.38
2022-11-29T13:43:54.344Z,12.48
2022-11-29T13:46:43.556Z,12.52
2022-11-29T13:49:52.991Z,12.07
2022-11-29T13:52:43.921Z,11.20
2022-11-29T13:55:29.030Z,10.52
2022-11-29T13:58:30.888Z,11.60
2022-11-29T14:01:11.594Z,11.13
2022-11-29T14:04:05.525Z,11.25
2022-11-29T14:06:39.278Z,11.65
2022-11-29T14:09:32.135Z,11.05
2022-11-29T14:12:21.898Z,11.18
2022-11-29T14:15:02.791Z,13.55
2022-11-29T14:17:59.447Z,11.57
2022-11-29T14:20:32.447Z,12.32
2022-11-29T14:23:05.009Z,10.25
2022-11-29T14:25:56.386Z,12.65
2022-11-29T14:28:38.753Z,11.90
2022-11-29T14:31:11.646Z,11.60
2022-11-29T14:33:47.475Z,13.27
2022-11-29T14:36:54.377Z,13.63
2022-11-29T14:39:41.292Z,11.30
2022-11-29T14:42:21.891Z,11.95
2022-11-29T14:45:06.304Z,12.23
2022-11-29T14:47:49.233Z,12.75
2022-11-29T14:50:40.194Z,11.30
2022-11-29T14:53:35.645Z,11.50
2022-11-29T14:56:34.760Z,11.75
2022-11-29T14:59:45.065Z,11.90
2022-11-29T15:02:34.830Z,10.50
2022-11-29T15:05:34.920Z,10.50
2022-11-29T15:08:17.429Z,9.48
2022-11-29T15:11:22.790Z,8.65
2022-11-29T15:14:07.537Z,9.85
2022-11-29T15:17:24.955Z,9.55
2022-11-29T15:20:17.443Z,9.02
2022-11-29T15:22:58.300Z,10.05
2022-11-29T15:25:33.484Z,9.38
2022-11-29T15:28:06.403Z,10.88
2022-11-29T15:30:42.450Z,9.63
2022-11-29T15:36:06.410Z,9.60
2022-11-29T15:38:49.110Z,10.90
2022-11-29T15:41:35.621Z,11.23
2022-11-29T15:44:23.191Z,10.77
2022-11-29T15:46:55.979Z,10.70
2022-11-29T15:49:30.597Z,11.55
2022-11-29T15:52:20.242Z,12.23
2022-11-29T15:55:05.582Z,11.02
2022-11-29T15:57:53.315Z,10.40
2022-11-29T16:00:28.306Z,11.30
2022-11-29T16:03:04.509Z,12.52
2022-11-29T16:05:39.401Z,12.10
2022-11-29T16:08:20.954Z,13.48
2022-11-29T16:10:54.642Z,20.70
2022-11-29T16:13:41.857Z,23.20
2022-11-29T16:16:20.806Z,13.50
2022-11-29T16:18:54.522Z,10.95
2022-11-29T16:21:31.397Z,11.45
2022-11-29T16:24:34.278Z,12.32
2022-11-29T16:27:08.366Z,10.35
2022-11-29T16:29:46.708Z,10.50
2022-11-29T16:32:35.761Z,11.77
2022-11-29T16:37:54.261Z,11.05
2022-11-29T16:40:30.628Z,10.65
2022-11-29T16:43:03.391Z,9.88
2022-11-29T16:45:41.965Z,11.00
2022-11-29T16:48:25.526Z,11.35
2022-11-29T16:51:23.928Z,8.88
2022-11-29T16:54:23.749Z,10.02
2022-11-29T16:57:28.373Z,8.90
2022-11-29T17:00:05.793Z,9.13
2022-11-29T17:02:51.688Z,8.93
2022-11-29T17:05:24.912Z,9.25
2022-11-29T17:07:57.972Z,10.05
2022-11-29T17:10:31.206Z,10.45
2022-11-29T17:13:04.797Z,9.63
2022-11-29T17:15:37.676Z,9.32
2022-11-29T17:18:10.501Z,9.38
2022-11-29T17:20:43.504Z,10.23
2022-11-29T17:23:16.149Z,10.30
2022-11-29T17:26:02.698Z,9.65
2022-11-29T17:28:35.379Z,9.93
2022-11-29T17:31:14.508Z,9.40
2022-11-29T17:33:47.885Z,9.48
2022-11-29T17:36:21.744Z,10.23
2022-11-29T17:38:54.383Z,9.63
2022-11-29T17:41:28.400Z,9.40
2022-11-29T17:44:02.159Z,10.35
2022-11-29T17:46:37.064Z,10.95
2022-11-29T17:49:10.894Z,10.35
2022-11-29T17:51:51.611Z,10.25
2022-11-29T17:54:24.795Z,8.52
2022-11-29T17:56:57.392Z,11.57
2022-11-29T17:59:30.499Z,10.52
2022-11-29T18:02:04.007Z,10.40
2022-11-29T18:04:37.645Z,10.77
2022-11-29T18:07:10.501Z,9.20
2022-11-29T18:09:44.281Z,11.18
2022-11-29T18:12:17.730Z,11.57
2022-11-29T18:14:51.018Z,13.20
2022-11-29T18:17:23.763Z,12.00
2022-11-29T18:19:56.449Z,11.88
2022-11-29T18:22:29.209Z,12.48
2022-11-29T18:25:30.638Z,12.50
2022-11-29T18:27:57.386Z,11.90
2022-11-29T18:30:30.208Z,11.52
2022-11-29T18:33:02.997Z,11.90
2022-11-29T18:35:35.943Z,11.40
2022-11-29T18:38:16.534Z,12.18
2022-11-29T18:40:49.584Z,13.57
2022-11-29T18:43:22.379Z,11.85
2022-11-29T18:45:55.431Z,13.02
2022-11-29T18:48:30.355Z,12.57
2022-11-29T18:51:06.261Z,11.98
2022-11-29T18:53:40.714Z,11.25
2022-11-29T18:56:22.830Z,11.85
2022-11-29T18:59:01.852Z,13.18
2022-11-29T19:01:41.401Z,12.30
2022-11-29T19:04:19.984Z,12.15
2022-11-29T19:06:52.815Z,11.73
2022-11-29T19:09:25.777Z,12.88
2022-11-29T19:11:58.574Z,12.35
2022-11-29T19:14:32.463Z,12.55
2022-11-29T19:17:05.322Z,11.80
2022-11-29T19:19:38.455Z,12.77
2022-11-29T19:22:11.417Z,12.20
2022-11-29T19:24:44.675Z,12.93
2022-11-29T19:27:17.704Z,11.75
2022-11-29T19:29:51.133Z,13.35
2022-11-29T19:32:24.219Z,13.18
2022-11-29T19:34:57.765Z,15.02
2022-11-29T19:37:31.039Z,13.43
2022-11-29T19:40:05.037Z,15.00
2022-11-29T19:42:38.137Z,14.90
2022-11-29T19:45:18.885Z,15.00
2022-11-29T19:47:53.204Z,14.55
2022-11-29T19:50:26.345Z,14.45
2022-11-29T19:52:59.878Z,14.02
2022-11-29T19:55:34.092Z,13.85
2022-11-29T19:58:07.286Z,13.23
2022-11-29T20:00:40.201Z,13.18
2022-11-29T20:03:13.429Z,14.98
2022-11-29T20:05:55.729Z,14.38
2022-11-29T20:08:30.248Z,13.55
2022-11-29T20:11:11.167Z,15.25
2022-11-29T20:13:46.921Z,13.15
2022-11-29T20:16:20.332Z,13.50
2022-11-29T20:18:53.937Z,12.52
2022-11-29T20:21:31.208Z,13.63
2022-11-29T20:24:07.978Z,13.50
2022-11-29T20:26:43.620Z,12.82
2022-11-29T20:29:17.899Z,14.15
2022-11-29T20:31:51.545Z,12.88
2022-11-29T20:34:24.806Z,13.98
2022-11-29T20:37:30.248Z,12.60
2022-11-29T20:40:16.809Z,14.10
2022-11-29T20:43:15.774Z,11.82
2022-11-29T20:45:49.242Z,12.75
2022-11-29T20:48:23.495Z,13.43
2022-11-29T20:51:02.517Z,11.43
2022-11-29T20:53:43.111Z,11.85
2022-11-29T20:56:16.156Z,13.60
2022-11-29T20:58:49.390Z,13.88
2022-11-29T21:01:22.311Z,13.65
2022-11-29T21:03:55.334Z,13.40
2022-11-29T21:06:28.136Z,13.80
2022-11-29T21:09:00.912Z,12.95
2022-11-29T21:11:33.901Z,14.07
2022-11-29T21:14:09.349Z,14.38
2022-11-29T21:16:42.604Z,15.32
2022-11-29T21:19:22.677Z,14.02
2022-11-29T21:22:22.479Z,14.18
2022-11-29T21:25:24.968Z,15.95
2022-11-29T21:27:58.225Z,13.10
2022-11-29T21:30:31.270Z,14.88
2022-11-29T21:33:04.756Z,15.57
2022-11-29T21:35:40.100Z,15.85
2022-11-29T21:38:20.720Z,14.50
2022-11-29T21:40:53.483Z,15.80
2022-11-29T21:43:58.023Z,14.35
2022-11-29T21:46:19.052Z,16.52
2022-11-29T21:48:52.969Z,16.45
2022-11-29T21:51:25.612Z,15.23
2022-11-29T21:53:58.152Z,14.43
2022-11-29T21:56:30.718Z,16.48
2022-11-29T21:59:03.696Z,15.35
2022-11-29T22:01:36.658Z,15.40
2022-11-29T22:04:09.541Z,16.67
2022-11-29T22:06:42.286Z,15.98
2022-11-29T22:09:18.110Z,15.20
2022-11-29T22:11:50.967Z,15.82
2022-11-29T22:14:24.486Z,15.73
2022-11-29T22:17:00.643Z,15.82
2022-11-29T22:22:10.817Z,15.15
2022-11-29T22:24:43.743Z,14.82
2022-11-29T22:27:18.537Z,15.27
2022-11-29T22:29:51.216Z,14.95
2022-11-29T22:32:23.937Z,14.90
2022-11-29T22:34:56.598Z,14.20
2022-11-29T22:37:29.284Z,14.55
2022-11-29T22:40:01.794Z,16.40
2022-11-29T22:42:34.426Z,15.98
2022-11-29T22:45:08.214Z,15.32
2022-11-29T22:47:41.021Z,16.40
2022-11-29T22:50:14.038Z,15.00
2022-11-29T22:52:46.763Z,15.65
2022-11-29T22:55:19.529Z,15.73
2022-11-29T22:57:53.824Z,14.35
2022-11-29T23:00:26.565Z,14.80
2022-11-29T23:02:59.312Z,15.10
2022-11-29T23:05:33.126Z,15.40
2022-11-29T23:08:05.973Z,15.88
2022-11-29T23:10:38.773Z,15.30
2022-11-29T23:13:11.405Z,13.50
2022-11-29T23:15:44.068Z,15.93
2022-11-29T23:18:16.689Z,17.23
2022-11-29T23:20:49.802Z,15.88
2022-11-29T23:23:22.474Z,14.75
2022-11-29T23:25:55.254Z,14.13
2022-11-29T23:28:29.206Z,15.38
2022-11-29T23:31:02.334Z,14.85
2022-11-29T23:33:35.370Z,14.50
2022-11-29T23:36:10.351Z,14.10
2022-11-29T23:38:43.583Z,13.63
2022-11-29T23:41:17.588Z,14.27
2022-11-29T23:43:50.693Z,13.73
2022-11-29T23:46:24.795Z,16.13
2022-11-29T23:48:57.719Z,14.73
2022-11-29T23:51:31.005Z,16.90
2022-11-29T23:54:05.626Z,15.00
2022-11-29T23:56:38.494Z,15.50
2022-11-29T23:59:11.678Z,15.45
